Time;durP1;ratioP1;P1;durP2;ratioP2;P2;SDS_P1;SDS_P2;PMS_P1;PMS_P2;Temp;Humidity;BMP_temperature;BMP_pressure;BME280_temperature;BME280_humidity;BME280_pressure;Samples;Min_cycle;Max_cycle;Signal;HPM_P1;HPM_P2
2023/04/15 00:01:25;;;;;;;1.45;0.00;;;4.70;99.90;;;;;;4941457;29;20075;-78
2023/04/15 00:03:53;;;;;;;1.13;0.10;;;4.70;99.90;;;;;;4939784;29;20436;-78
2023/04/15 00:06:19;;;;;;;0.10;0.10;;;4.70;99.90;;;;;;4923214;29;20020;-79
2023/04/15 00:08:46;;;;;;;2.03;0.10;;;4.60;99.90;;;;;;4923513;29;20071;-79
2023/04/15 00:11:12;;;;;;;1.15;0.15;;;4.60;99.90;;;;;;4924998;29;20111;-78
2023/04/15 00:13:38;;;;;;;0.17;0.10;;;4.60;99.90;;;;;;4927618;29;20032;-78
2023/04/15 00:16:05;;;;;;;5.68;2.40;;;4.60;99.90;;;;;;4929103;29;20043;-78
2023/04/15 00:18:31;;;;;;;3.45;1.45;;;4.60;99.90;;;;;;4945864;29;20038;-78
2023/04/15 00:20:57;;;;;;;26.80;8.60;;;4.60;99.90;;;;;;4947301;29;20255;-78
2023/04/15 00:23:23;;;;;;;12.27;3.50;;;4.70;99.90;;;;;;4925726;29;20031;-78
2023/04/15 00:25:49;;;;;;;3.80;1.65;;;4.70;99.90;;;;;;4948637;29;20490;-78
2023/04/15 00:28:15;;;;;;;3.97;1.80;;;5.00;99.90;;;;;;4948407;29;20023;-78
2023/04/15 00:30:41;;;;;;;2.53;1.10;;;4.70;99.90;;;;;;4933302;29;20380;-78
2023/04/15 00:33:07;;;;;;;1.20;0.28;;;4.70;99.90;;;;;;4950160;29;20039;-78
2023/04/15 00:35:33;;;;;;;0.85;0.30;;;4.60;99.90;;;;;;4930727;29;20543;-78
2023/04/15 00:37:59;;;;;;;0.25;0.20;;;4.60;99.90;;;;;;4948470;29;20042;-78
2023/04/15 00:40:25;;;;;;;1.48;0.68;;;4.50;99.90;;;;;;4925924;29;20472;-77
2023/04/15 00:42:51;;;;;;;0.75;0.30;;;4.50;99.90;;;;;;4924181;29;20028;-78
2023/04/15 00:45:17;;;;;;;0.35;0.30;;;4.60;99.90;;;;;;4930233;29;20042;-78
2023/04/15 00:47:43;;;;;;;1.50;0.47;;;4.60;99.90;;;;;;4948069;29;20468;-78
2023/04/15 00:50:11;;;;;;;3.08;0.52;;;4.60;99.90;;;;;;4944199;29;20028;-77
2023/04/15 00:52:37;;;;;;;3.13;0.82;;;4.50;99.90;;;;;;4944210;29;20034;-77
2023/04/15 00:55:04;;;;;;;0.85;0.60;;;5.50;99.90;;;;;;4930335;29;20383;-77
2023/04/15 00:57:30;;;;;;;0.65;0.57;;;4.50;99.90;;;;;;4947762;29;20036;-78
2023/04/15 00:59:56;;;;;;;0.65;0.47;;;4.50;99.90;;;;;;4931006;29;20086;-78
2023/04/15 01:02:23;;;;;;;1.20;0.50;;;4.50;99.90;;;;;;4932156;29;20028;-78
2023/04/15 01:04:49;;;;;;;0.47;0.30;;;4.50;99.90;;;;;;4930814;29;20488;-78
2023/04/15 01:07:14;;;;;;;0.50;0.50;;;4.50;99.90;;;;;;4947587;29;20030;-78
2023/04/15 01:09:41;;;;;;;0.20;0.20;;;4.50;99.90;;;;;;4930575;29;20038;-78
2023/04/15 01:12:09;;;;;;;1.80;0.50;;;4.40;99.90;;;;;;4927888;29;20473;-78
2023/04/15 01:14:35;;;;;;;1.80;0.30;;;4.40;99.90;;;;;;4944755;29;20090;-78
2023/04/15 01:17:01;;;;;;;0.82;0.20;;;4.30;99.90;;;;;;4942574;29;20456;-78
2023/04/15 01:19:27;;;;;;;1.05;0.32;;;4.20;99.90;;;;;;4926341;29;20118;-78
2023/04/15 01:21:53;;;;;;;0.43;0.15;;;4.20;99.90;;;;;;4925869;29;20039;-78
2023/04/15 01:24:20;;;;;;;2.17;0.38;;;4.20;99.90;;;;;;4928560;29;20028;-78
2023/04/15 01:26:46;;;;;;;2.08;0.50;;;4.10;99.90;;;;;;4938725;29;20376;-78
2023/04/15 01:29:12;;;;;;;0.40;0.40;;;4.10;99.90;;;;;;4922303;29;20023;-78
2023/04/15 01:31:37;;;;;;;1.88;0.45;;;5.30;99.90;;;;;;4940717;29;20103;-79
2023/04/15 01:34:03;;;;;;;2.35;0.52;;;4.10;99.90;;;;;;4945122;29;20099;-79
2023/04/15 01:36:29;;;;;;;0.38;0.30;;;4.10;99.90;;;;;;4944507;29;20031;-78
2023/04/15 01:38:56;;;;;;;0.70;0.70;;;4.10;99.90;;;;;;4927707;29;20023;-78
2023/04/15 01:41:27;;;;;;;3.13;0.60;;;4.10;99.90;;;;;;4927817;29;20118;-79
2023/04/15 01:43:54;;;;;;;0.95;0.60;;;4.10;99.90;;;;;;4926774;29;20034;-79
2023/04/15 01:46:19;;;;;;;2.28;0.40;;;4.20;99.90;;;;;;4942103;29;20075;-78
2023/04/15 01:48:46;;;;;;;0.70;0.47;;;4.10;99.90;;;;;;4940004;29;20028;-78
2023/04/15 01:51:11;;;;;;;0.75;0.63;;;4.10;99.90;;;;;;4939869;29;20024;-78
2023/04/15 01:53:37;;;;;;;0.35;0.35;;;4.10;99.90;;;;;;4923714;29;20551;-78
2023/04/15 01:56:03;;;;;;;0.85;0.70;;;5.90;99.90;;;;;;4926478;29;20035;-78
2023/04/15 01:58:29;;;;;;;1.88;0.70;;;4.10;99.90;;;;;;4947139;29;20388;-78
2023/04/15 02:00:54;;;;;;;2.45;0.55;;;4.20;99.90;;;;;;4948353;29;20051;-78
2023/04/15 02:03:20;;;;;;;2.13;0.70;;;4.20;99.90;;;;;;4946188;29;20026;-77
2023/04/15 02:05:46;;;;;;;1.73;0.90;;;4.20;99.90;;;;;;4927292;29;20118;-78
2023/04/15 02:08:12;;;;;;;1.15;0.73;;;4.30;99.90;;;;;;4940864;29;20028;-78
2023/04/15 02:10:38;;;;;;;1.08;0.80;;;4.30;99.90;;;;;;4928840;29;20035;-78
2023/04/15 02:13:04;;;;;;;2.40;0.75;;;4.30;99.90;;;;;;4929760;29;20028;-78
2023/04/15 02:15:30;;;;;;;0.50;0.40;;;5.20;99.90;;;;;;4928455;29;20411;-78
2023/04/15 02:17:55;;;;;;;0.98;0.43;;;4.30;99.90;;;;;;4945626;29;20028;-78
2023/04/15 02:20:22;;;;;;;0.17;0.17;;;5.50;99.90;;;;;;4927409;29;20465;-78
2023/04/15 02:22:48;;;;;;;0.20;0.20;;;4.30;99.90;;;;;;4943617;29;20058;-78
2023/04/15 02:25:15;;;;;;;0.40;0.40;;;4.30;99.90;;;;;;4927481;29;20091;-78
2023/04/15 02:27:42;;;;;;;0.90;0.70;;;4.30;99.90;;;;;;4947902;29;20118;-78
2023/04/15 02:30:08;;;;;;;2.05;0.45;;;5.20;99.90;;;;;;4933176;29;20032;-78
2023/04/15 02:32:33;;;;;;;0.28;0.28;;;4.30;99.90;;;;;;4932869;29;20393;-78
2023/04/15 02:35:07;;;;;;;0.50;0.10;;;5.00;99.90;;;;;;4949689;29;20042;-77
2023/04/15 02:37:39;;;;;;;0.20;0.20;;;4.30;99.90;;;;;;4930534;29;20556;-77
2023/04/15 02:40:07;;;;;;;1.45;0.17;;;4.30;99.90;;;;;;4927705;29;20030;-77
2023/04/15 02:42:32;;;;;;;0.20;0.20;;;4.30;99.90;;;;;;4928327;29;20476;-77
2023/04/15 02:44:58;;;;;;;0.10;0.10;;;4.30;99.90;;;;;;4928163;29;20032;-78
2023/04/15 02:47:24;;;;;;;0.60;0.05;;;4.30;99.90;;;;;;4945570;29;20028;-78
2023/04/15 02:49:49;;;;;;;0.00;0.00;;;4.20;99.90;;;;;;4928029;29;20033;-77
2023/04/15 02:52:15;;;;;;;0.13;0.00;;;4.20;99.90;;;;;;4927247;29;20376;-77
2023/04/15 02:54:41;;;;;;;0.13;0.10;;;4.30;99.90;;;;;;4942194;29;20102;-78
2023/04/15 02:57:07;;;;;;;0.00;0.00;;;4.20;99.90;;;;;;4944838;29;20027;-78
2023/04/15 02:59:32;;;;;;;2.28;0.00;;;5.70;99.90;;;;;;4946198;29;20024;-78
2023/04/15 03:01:59;;;;;;;0.00;0.00;;;4.10;99.90;;;;;;4930708;29;20380;-77
2023/04/15 03:04:28;;;;;;;0.20;0.20;;;;;;;;;;4946862;29;20463;-77
2023/04/15 03:06:55;;;;;;;;;;;4.10;99.90;;;;;;4948008;29;20031;-77
2023/04/15 03:09:21;;;;;;;0.00;0.00;;;4.10;99.90;;;;;;4943276;29;19906;-77
2023/04/15 03:11:46;;;;;;;0.00;0.00;;;4.10;99.90;;;;;;4943594;29;20459;-78
2023/04/15 03:14:12;;;;;;;0.05;0.00;;;4.30;99.90;;;;;;4927175;29;20027;-77
2023/04/15 03:16:37;;;;;;;0.17;0.00;;;4.00;99.90;;;;;;4927343;29;20039;-77
2023/04/15 03:19:03;;;;;;;0.10;0.00;;;4.00;99.90;;;;;;4925926;29;20024;-77
2023/04/15 03:21:29;;;;;;;0.10;0.03;;;4.00;99.90;;;;;;4944233;29;20027;-77
2023/04/15 03:23:56;;;;;;;0.05;0.00;;;4.90;99.90;;;;;;4943760;29;20036;-77
2023/04/15 03:26:29;;;;;;;1.30;0.10;;;3.90;99.90;;;;;;4943445;29;20096;-77
2023/04/15 03:28:55;;;;;;;0.15;0.03;;;4.20;99.90;;;;;;4943264;29;20016;-77
2023/04/15 03:31:21;;;;;;;1.25;0.10;;;4.00;99.90;;;;;;4924275;29;20039;-77
2023/04/15 03:33:46;;;;;;;0.00;0.00;;;3.90;99.90;;;;;;4941708;29;20028;-78
2023/04/15 03:36:12;;;;;;;0.00;0.00;;;3.90;99.90;;;;;;4924344;29;20432;-77
2023/04/15 03:38:38;;;;;;;0.10;0.00;;;3.80;99.90;;;;;;4923670;29;20365;-78
2023/04/15 03:41:04;;;;;;;2.83;0.00;;;4.30;99.90;;;;;;4923786;29;20070;-78
2023/04/15 03:43:30;;;;;;;0.00;0.00;;;3.70;99.90;;;;;;4923366;29;20027;-78
2023/04/15 03:45:55;;;;;;;0.63;0.00;;;3.70;99.90;;;;;;4940217;29;20051;-78
2023/04/15 03:48:21;;;;;;;2.20;0.08;;;4.40;99.90;;;;;;4941602;29;20027;-78
2023/04/15 03:50:47;;;;;;;0.00;0.00;;;3.60;99.90;;;;;;4924679;29;20035;-78
2023/04/15 03:53:13;;;;;;;0.15;0.00;;;4.60;99.90;;;;;;4940741;29;20042;-78
2023/04/15 03:55:38;;;;;;;0.28;0.00;;;4.70;99.90;;;;;;4924693;29;20035;-78
2023/04/15 03:58:04;;;;;;;0.00;0.00;;;3.60;99.90;;;;;;4924022;29;20388;-78
2023/04/15 04:00:30;;;;;;;0.00;0.00;;;3.50;99.90;;;;;;4942823;29;20044;-78
2023/04/15 04:02:55;;;;;;;0.40;0.10;;;3.50;99.90;;;;;;4924309;29;20536;-78
2023/04/15 04:05:21;;;;;;;0.00;0.00;;;3.60;99.90;;;;;;4924308;29;20038;-78
2023/04/15 04:07:47;;;;;;;0.00;0.00;;;3.50;99.90;;;;;;4940692;29;20111;-78
2023/04/15 04:10:13;;;;;;;1.45;0.10;;;4.20;99.90;;;;;;4923681;29;20032;-78
2023/04/15 04:12:38;;;;;;;0.00;0.00;;;3.50;99.90;;;;;;4939535;29;20028;-78
2023/04/15 04:15:05;;;;;;;0.00;0.00;;;3.50;99.90;;;;;;4939548;29;20071;-78
2023/04/15 04:17:31;;;;;;;0.30;0.00;;;3.50;99.90;;;;;;4940506;29;20028;-77
2023/04/15 04:19:57;;;;;;;0.85;0.30;;;3.50;99.90;;;;;;4940669;29;20460;-78
2023/04/15 04:22:23;;;;;;;1.27;0.40;;;3.50;99.90;;;;;;4940415;29;20114;-78
2023/04/15 04:24:49;;;;;;;1.98;0.20;;;3.50;99.90;;;;;;4923285;29;20511;-78
2023/04/15 04:27:15;;;;;;;0.22;0.22;;;3.50;99.90;;;;;;4940864;29;20460;-77
2023/04/15 04:29:41;;;;;;;0.47;0.20;;;3.50;99.90;;;;;;4923945;29;20042;-77
2023/04/15 04:32:07;;;;;;;0.68;0.32;;;3.50;99.90;;;;;;4923793;29;20024;-77
2023/04/15 04:34:32;;;;;;;1.00;0.15;;;3.50;99.90;;;;;;4940288;29;20420;-76
2023/04/15 04:36:58;;;;;;;0.80;0.30;;;3.50;99.90;;;;;;4924104;29;20042;-77
2023/04/15 04:39:24;;;;;;;0.77;0.68;;;3.60;99.90;;;;;;4923243;29;20035;-77
2023/04/15 04:41:51;;;;;;;0.20;0.20;;;3.60;99.90;;;;;;4924137;29;20032;-77
2023/04/15 04:44:17;;;;;;;1.48;0.85;;;3.60;99.90;;;;;;4939460;29;20043;-77
2023/04/15 04:46:42;;;;;;;2.67;0.40;;;3.60;99.90;;;;;;4939880;29;20031;-77
2023/04/15 04:49:08;;;;;;;0.73;0.35;;;3.60;99.90;;;;;;4923566;29;20054;-77
2023/04/15 04:51:34;;;;;;;1.05;0.60;;;3.60;99.90;;;;;;4941736;29;20050;-77
2023/04/15 04:53:59;;;;;;;1.70;0.68;;;3.70;99.90;;;;;;4926526;29;20055;-77
2023/04/15 04:56:25;;;;;;;2.17;0.52;;;3.80;99.90;;;;;;4944682;29;20035;-77
2023/04/15 04:58:51;;;;;;;0.82;0.70;;;3.80;99.90;;;;;;4946112;29;20024;-77
2023/04/15 05:01:17;;;;;;;1.48;0.55;;;3.80;99.90;;;;;;4947099;29;20074;-77
2023/04/15 05:03:43;;;;;;;1.48;0.82;;;3.80;99.90;;;;;;4947704;29;20038;-77
2023/04/15 05:06:09;;;;;;;1.65;0.93;;;3.80;99.90;;;;;;4948685;29;20051;-77
2023/04/15 05:08:35;;;;;;;1.48;0.65;;;3.90;99.90;;;;;;4948344;29;20031;-78
2023/04/15 05:11:01;;;;;;;0.93;0.30;;;3.90;99.90;;;;;;4948827;29;20027;-77
2023/04/15 05:13:26;;;;;;;2.15;0.40;;;3.90;99.90;;;;;;4947114;29;20055;-77
2023/04/15 05:15:52;;;;;;;0.38;0.20;;;3.90;99.90;;;;;;4932313;29;20040;-77
2023/04/15 05:18:18;;;;;;;2.10;0.25;;;3.90;99.90;;;;;;4949258;29;20055;-77
2023/04/15 05:20:44;;;;;;;1.17;0.20;;;3.90;99.90;;;;;;4948542;29;20028;-77
2023/04/15 05:23:09;;;;;;;0.30;0.20;;;4.20;99.90;;;;;;4931859;29;20032;-77
2023/04/15 05:25:35;;;;;;;0.50;0.30;;;4.00;99.90;;;;;;4931033;29;20039;-77
2023/04/15 05:28:01;;;;;;;2.05;0.20;;;4.00;99.90;;;;;;4931891;29;20066;-78
2023/04/15 05:30:26;;;;;;;0.32;0.20;;;4.00;99.90;;;;;;4947595;29;20028;-77
2023/04/15 05:32:52;;;;;;;0.38;0.30;;;4.10;99.90;;;;;;4947083;29;20032;-77
2023/04/15 05:35:18;;;;;;;2.25;1.33;;;4.10;99.90;;;;;;4949171;29;20038;-77
2023/04/15 05:37:44;;;;;;;0.10;0.10;;;6.00;99.90;;;;;;4947194;29;20126;-77
2023/04/15 05:40:10;;;;;;;0.55;0.20;;;4.20;99.90;;;;;;4949194;29;20028;-77
2023/04/15 05:42:36;;;;;;;0.40;0.20;;;4.10;99.90;;;;;;4947647;29;20028;-77
2023/04/15 05:45:04;;;;;;;1.23;0.30;;;4.20;99.90;;;;;;4932002;29;20455;-77
2023/04/15 05:47:30;;;;;;;0.30;0.20;;;4.20;99.90;;;;;;4948341;29;20028;-76
2023/04/15 05:49:57;;;;;;;1.52;0.20;;;4.20;99.90;;;;;;4931506;29;20093;-76
2023/04/15 05:52:23;;;;;;;0.85;0.30;;;4.20;99.90;;;;;;4949019;29;20024;-76
2023/04/15 05:54:49;;;;;;;0.63;0.40;;;4.30;99.90;;;;;;4930232;29;20043;-76
2023/04/15 05:57:15;;;;;;;0.47;0.25;;;4.30;99.90;;;;;;4930802;29;20028;-77
2023/04/15 05:59:41;;;;;;;1.27;0.40;;;4.30;99.90;;;;;;4929375;29;20059;-77
2023/04/15 06:02:08;;;;;;;0.77;0.30;;;4.40;99.90;;;;;;4946385;29;20145;-77
2023/04/15 06:04:34;;;;;;;0.25;0.25;;;4.50;99.90;;;;;;4931258;29;20045;-77
2023/04/15 06:07:00;;;;;;;1.05;0.20;;;4.50;99.90;;;;;;4946986;29;20039;-78
2023/04/15 06:09:25;;;;;;;3.42;0.40;;;5.00;99.90;;;;;;4930802;29;20016;-77
2023/04/15 06:11:52;;;;;;;2.08;0.10;;;5.20;99.90;;;;;;4930996;29;20087;-77
2023/04/15 06:14:17;;;;;;;1.27;0.10;;;4.60;99.90;;;;;;4930520;29;20461;-78
2023/04/15 06:16:43;;;;;;;3.42;0.17;;;4.70;99.90;;;;;;4947069;29;20032;-77
2023/04/15 06:19:08;;;;;;;0.40;0.20;;;4.70;99.90;;;;;;4946497;29;20076;-77
2023/04/15 06:21:34;;;;;;;0.10;0.00;;;4.80;99.90;;;;;;4930469;29;20015;-73
2023/04/15 06:24:01;;;;;;;0.95;0.20;;;5.70;99.90;;;;;;4948858;29;20383;-77
2023/04/15 06:26:27;;;;;;;1.08;0.10;;;4.90;99.90;;;;;;4934588;29;20024;-78
2023/04/15 06:28:53;;;;;;;1.35;0.20;;;4.90;99.90;;;;;;4950616;29;20028;-76
2023/04/15 06:31:18;;;;;;;0.75;0.10;;;5.00;99.90;;;;;;4931931;29;20054;-76
2023/04/15 06:33:44;;;;;;;0.20;0.20;;;5.00;99.90;;;;;;4947710;29;20051;-77
2023/04/15 06:36:10;;;;;;;0.15;0.10;;;5.00;99.90;;;;;;4947277;29;20027;-76
2023/04/15 06:38:35;;;;;;;0.20;0.20;;;5.10;99.90;;;;;;4932050;29;20091;-76
2023/04/15 06:41:03;;;;;;;1.10;0.20;;;5.10;99.90;;;;;;4946587;29;20357;-73
2023/04/15 06:43:28;;;;;;;0.40;0.30;;;5.10;99.90;;;;;;4947183;29;20032;-75
2023/04/15 06:45:55;;;;;;;0.55;0.22;;;5.20;99.90;;;;;;4929929;29;20048;-75
2023/04/15 06:48:21;;;;;;;0.63;0.60;;;5.30;99.90;;;;;;4928998;29;20028;-73
2023/04/15 06:50:48;;;;;;;3.92;0.30;;;5.30;99.90;;;;;;4929317;29;20031;-75
2023/04/15 06:53:13;;;;;;;0.82;0.38;;;5.40;99.90;;;;;;4944710;29;20024;-73
2023/04/15 06:55:40;;;;;;;1.23;0.50;;;5.40;99.90;;;;;;4942944;29;20032;-73
2023/04/15 06:58:06;;;;;;;0.68;0.38;;;5.50;99.90;;;;;;4945390;29;20023;-73
2023/04/15 07:00:32;;;;;;;0.43;0.20;;;5.50;99.90;;;;;;4945349;29;20058;-72
2023/04/15 07:03:02;;;;;;;1.95;1.00;;;5.50;99.90;;;;;;4927192;29;20027;-72
2023/04/15 07:05:28;;;;;;;3.13;0.32;;;5.50;99.90;;;;;;4946007;29;20039;-74
2023/04/15 07:07:54;;;;;;;1.00;0.30;;;5.60;99.90;;;;;;4945993;29;20032;-72
2023/04/15 07:10:20;;;;;;;1.95;0.22;;;5.60;99.90;;;;;;4946893;29;20026;-76
2023/04/15 07:12:46;;;;;;;1.85;0.47;;;5.60;99.90;;;;;;4945998;29;20019;-76
2023/04/15 07:15:12;;;;;;;0.50;0.10;;;5.60;99.90;;;;;;4949892;29;20024;-77
2023/04/15 07:17:38;;;;;;;0.20;0.20;;;5.60;99.90;;;;;;4933842;29;20032;-76
2023/04/15 07:20:04;;;;;;;0.22;0.10;;;5.60;99.90;;;;;;4933207;29;20475;-75
2023/04/15 07:22:29;;;;;;;0.40;0.32;;;5.70;99.90;;;;;;4950946;29;20076;-75
2023/04/15 07:24:55;;;;;;;0.95;0.40;;;5.80;99.90;;;;;;4951055;29;20027;-76
2023/04/15 07:27:21;;;;;;;4.55;0.98;;;5.80;99.90;;;;;;4933527;29;20024;-75
2023/04/15 07:29:47;;;;;;;3.75;1.92;;;5.90;99.90;;;;;;4934507;29;20113;-76
2023/04/15 07:32:13;;;;;;;1.23;1.05;;;5.90;99.90;;;;;;4948239;29;20032;-74
2023/04/15 07:34:38;;;;;;;1.38;0.50;;;5.90;99.90;;;;;;4930996;29;20042;-76
2023/04/15 07:37:04;;;;;;;2.05;0.70;;;5.80;99.90;;;;;;4932440;29;20032;-76
2023/04/15 07:39:30;;;;;;;1.35;1.20;;;5.90;99.90;;;;;;4946760;29;20044;-76
2023/04/15 07:41:55;;;;;;;3.22;1.63;;;5.90;99.90;;;;;;4933309;29;20024;-76
2023/04/15 07:44:21;;;;;;;3.95;2.67;;;5.90;99.90;;;;;;4950801;29;20036;-76
2023/04/15 07:46:47;;;;;;;12.48;2.63;;;5.90;99.90;;;;;;4949160;29;20031;-75
2023/04/15 07:49:13;;;;;;;2.10;1.90;;;6.00;99.90;;;;;;4950292;29;20031;-77
2023/04/15 07:51:39;;;;;;;2.95;2.22;;;6.00;99.90;;;;;;4926380;29;20428;-65
2023/04/15 07:54:04;;;;;;;3.75;1.70;;;6.00;99.90;;;;;;4939292;29;20031;-64
2023/04/15 07:56:30;;;;;;;1.65;1.40;;;6.00;99.90;;;;;;4938948;29;20380;-64
2023/04/15 07:58:55;;;;;;;3.83;1.65;;;6.00;99.90;;;;;;4938897;29;20078;-63
2023/04/15 08:01:21;;;;;;;1.95;1.40;;;5.90;99.90;;;;;;4938959;29;20043;-64
2023/04/15 08:03:47;;;;;;;2.80;1.60;;;5.90;99.90;;;;;;4939310;29;20020;-63
2023/04/15 08:06:13;;;;;;;3.30;1.80;;;6.00;99.90;;;;;;4941332;29;20091;-71
2023/04/15 08:08:38;;;;;;;3.22;1.77;;;6.10;99.90;;;;;;4925146;29;20067;-60
2023/04/15 08:11:04;;;;;;;2.97;2.00;;;6.10;99.90;;;;;;4948500;29;20031;-77
2023/04/15 08:13:30;;;;;;;3.13;1.60;;;6.20;99.90;;;;;;4932491;29;20034;-77
2023/04/15 08:16:23;;;;;;;1.70;1.13;;;6.30;99.90;;;;;;4931135;29;20035;-78
2023/04/15 08:18:50;;;;;;;3.00;1.10;;;6.40;99.90;;;;;;4950102;29;20034;-76
2023/04/15 08:21:18;;;;;;;3.78;0.90;;;6.40;99.90;;;;;;4949275;29;20115;-77
2023/04/15 08:23:45;;;;;;;1.98;0.95;;;6.50;99.90;;;;;;4931527;29;20376;-76
2023/04/15 08:26:11;;;;;;;3.13;1.80;;;6.70;99.90;;;;;;4945991;29;20103;-77
2023/04/15 08:28:39;;;;;;;2.80;1.10;;;6.80;99.90;;;;;;4948403;29;20031;-77
2023/04/15 08:31:05;;;;;;;3.50;1.35;;;6.80;99.90;;;;;;4948359;29;20036;-77
2023/04/15 08:33:31;;;;;;;6.00;1.30;;;6.80;99.90;;;;;;4949899;29;20035;-77
2023/04/15 08:36:03;;;;;;;2.40;1.30;;;6.90;99.90;;;;;;4931436;29;20043;-77
2023/04/15 08:38:29;;;;;;;1.40;1.30;;;6.90;99.90;;;;;;4931323;29;20028;-77
2023/04/15 08:40:57;;;;;;;1.77;1.67;;;6.90;99.90;;;;;;4946222;29;20028;-77
2023/04/15 08:43:27;;;;;;;2.55;0.70;;;6.90;99.90;;;;;;4947216;29;20020;-77
2023/04/15 08:45:54;;;;;;;0.50;0.40;;;7.00;99.90;;;;;;4931975;29;20036;-77
2023/04/15 08:48:20;;;;;;;3.22;0.80;;;6.90;99.90;;;;;;4948202;29;20056;-77
2023/04/15 08:50:47;;;;;;;0.70;0.70;;;6.90;99.90;;;;;;4929779;29;20392;-78
2023/04/15 08:53:14;;;;;;;0.40;0.40;;;6.90;99.90;;;;;;4947946;29;20035;-78
2023/04/15 08:55:45;;;;;;;1.10;0.30;;;6.80;99.90;;;;;;4950038;29;20087;-78
2023/04/15 08:58:11;;;;;;;0.43;0.20;;;6.80;99.90;;;;;;4948878;29;20443;-77
2023/04/15 09:00:37;;;;;;;0.38;0.10;;;6.80;99.90;;;;;;4947827;29;20051;-77
2023/04/15 09:03:07;;;;;;;0.43;0.20;;;6.80;99.90;;;;;;4931534;29;20483;-77
2023/04/15 09:05:34;;;;;;;0.73;0.60;;;6.90;99.90;;;;;;4931243;29;20035;-77
2023/04/15 09:08:01;;;;;;;2.47;1.30;;;6.80;99.90;;;;;;4929607;29;20028;-77
2023/04/15 09:10:28;;;;;;;0.25;0.10;;;6.90;99.90;;;;;;4947359;29;20028;-77
2023/04/15 09:12:54;;;;;;;3.63;0.38;;;6.80;99.90;;;;;;4929287;29;20039;-77
2023/04/15 09:15:20;;;;;;;0.90;0.28;;;6.80;99.90;;;;;;4947604;29;20038;-77
2023/04/15 09:17:47;;;;;;;0.73;0.40;;;6.80;99.90;;;;;;4948047;29;20059;-77
2023/04/15 09:20:14;;;;;;;0.80;0.25;;;6.80;99.90;;;;;;4947085;29;20543;-77
2023/04/15 09:22:41;;;;;;;1.10;0.50;;;6.80;99.90;;;;;;4930779;29;20126;-76
2023/04/15 09:25:29;;;;;;;2.17;0.45;;;6.90;99.90;;;;;;4930576;29;20035;-77
2023/04/15 09:28:00;;;;;;;0.65;0.30;;;6.90;99.90;;;;;;4948068;29;20020;-78
2023/04/15 09:30:28;;;;;;;0.20;0.10;;;6.80;99.90;;;;;;4947740;29;20028;-77
2023/04/15 09:33:01;;;;;;;0.00;0.00;;;6.70;99.90;;;;;;4948021;29;20024;-77
2023/04/15 09:35:27;;;;;;;0.17;0.10;;;6.60;99.90;;;;;;4931111;29;20035;-77
2023/04/15 09:38:00;;;;;;;0.25;0.10;;;6.50;99.90;;;;;;4931492;29;20059;-77
2023/04/15 09:40:35;;;;;;;1.05;0.35;;;6.60;99.90;;;;;;4947982;29;20102;-77
2023/04/15 09:43:02;;;;;;;0.20;0.20;;;6.60;99.90;;;;;;4948961;29;20032;-77
2023/04/15 09:45:28;;;;;;;1.63;0.40;;;6.60;99.90;;;;;;4949218;29;20096;-78
2023/04/15 09:47:56;;;;;;;0.05;0.00;;;6.70;99.90;;;;;;4947161;29;20058;-77
2023/04/15 09:50:26;;;;;;;1.05;0.20;;;6.70;99.90;;;;;;4948019;29;20120;-78
2023/04/15 09:52:52;;;;;;;1.58;0.10;;;6.60;99.90;;;;;;4930789;29;20098;-77
2023/04/15 09:55:18;;;;;;;1.33;0.20;;;6.60;99.90;;;;;;4931701;29;20515;-77
2023/04/15 09:57:46;;;;;;;0.10;0.10;;;6.70;99.90;;;;;;4947126;29;20040;-77
2023/04/15 10:00:12;;;;;;;0.22;0.00;;;6.70;99.90;;;;;;4947194;29;20047;-76
2023/04/15 10:02:42;;;;;;;0.43;0.22;;;6.60;99.90;;;;;;4947126;29;20032;-76
2023/04/15 10:05:14;;;;;;;0.00;0.00;;;6.50;99.90;;;;;;4929082;29;20475;-77
2023/04/15 10:07:41;;;;;;;0.00;0.00;;;6.50;99.90;;;;;;4927370;29;20030;-76
2023/04/15 10:10:08;;;;;;;0.10;0.00;;;6.40;99.90;;;;;;4945304;29;20480;-76
2023/04/15 10:12:36;;;;;;;0.08;0.08;;;6.30;99.90;;;;;;4947740;29;20024;-76
2023/04/15 10:15:05;;;;;;;0.40;0.00;;;6.40;99.90;;;;;;4930339;29;20039;-76
2023/04/15 10:17:34;;;;;;;0.73;0.10;;;6.40;99.90;;;;;;4947815;29;20023;-76
2023/04/15 10:20:04;;;;;;;0.00;0.00;;;6.60;99.90;;;;;;4929636;29;20027;-76
2023/04/15 10:22:30;;;;;;;0.10;0.10;;;6.50;99.90;;;;;;4947516;29;20031;-77
2023/04/15 10:24:57;;;;;;;0.10;0.00;;;6.50;99.90;;;;;;4929537;29;20032;-77
2023/04/15 10:27:23;;;;;;;0.13;0.00;;;6.60;99.90;;;;;;4929407;29;20031;-76
2023/04/15 10:29:50;;;;;;;0.32;0.00;;;6.60;99.90;;;;;;4928845;29;20035;-77
2023/04/15 10:32:19;;;;;;;2.80;0.45;;;6.70;99.90;;;;;;4930307;29;20139;-76
2023/04/15 10:34:47;;;;;;;0.10;0.10;;;6.60;99.90;;;;;;4947980;29;20035;-77
2023/04/15 10:37:33;;;;;;;0.10;0.00;;;6.60;99.90;;;;;;4929457;29;20036;-77
2023/04/15 10:39:59;;;;;;;0.57;0.10;;;6.60;99.90;;;;;;4930582;29;20035;-76
2023/04/15 10:42:33;;;;;;;0.63;0.00;;;6.70;99.90;;;;;;4945758;29;20032;-76
2023/04/15 10:44:59;;;;;;;1.85;0.20;;;6.70;99.90;;;;;;4946342;29;20032;-76
2023/04/15 10:47:25;;;;;;;0.95;0.50;;;6.80;99.90;;;;;;4947232;29;20054;-77
2023/04/15 10:50:01;;;;;;;0.20;0.00;;;6.80;99.90;;;;;;4933363;29;20028;-77
2023/04/15 10:52:28;;;;;;;0.20;0.20;;;6.70;99.90;;;;;;4952157;29;20023;-77
2023/04/15 10:55:20;;;;;;;1.42;0.90;;;6.70;99.90;;;;;;4952364;29;20058;-77
2023/04/15 10:57:46;;;;;;;0.22;0.05;;;6.90;99.90;;;;;;4953212;29;20032;-76
2023/04/15 11:00:12;;;;;;;2.83;0.50;;;6.90;99.90;;;;;;4951768;29;20044;-76
2023/04/15 11:02:52;;;;;;;1.27;0.50;;;7.00;99.90;;;;;;4934482;29;20024;-77
2023/04/15 11:05:19;;;;;;;1.38;0.30;;;7.10;99.90;;;;;;4934958;29;20051;-77
2023/04/15 11:07:48;;;;;;;0.63;0.30;;;7.20;99.90;;;;;;4934853;29;20062;-76
2023/04/15 11:10:16;;;;;;;0.95;0.47;;;7.20;99.90;;;;;;4935197;29;20043;-77
2023/04/15 11:12:42;;;;;;;2.90;1.05;;;7.20;99.90;;;;;;4935490;29;20042;-77
2023/04/15 11:15:26;;;;;;;0.88;0.40;;;7.30;99.90;;;;;;4933671;29;20529;-77
2023/04/15 11:17:52;;;;;;;0.70;0.40;;;7.40;99.90;;;;;;4935792;29;20035;-78
2023/04/15 11:20:18;;;;;;;0.28;0.25;;;7.50;99.90;;;;;;4950422;29;20038;-79
2023/04/15 11:22:52;;;;;;;0.90;0.40;;;7.60;99.90;;;;;;4954063;29;20051;-77
2023/04/15 11:25:25;;;;;;;1.02;0.20;;;7.50;99.90;;;;;;4936107;29;20027;-78
2023/04/15 11:27:53;;;;;;;0.38;0.38;;;7.40;99.90;;;;;;4937568;29;20391;-78
2023/04/15 11:30:22;;;;;;;1.00;0.60;;;7.50;99.90;;;;;;4937560;29;20039;-78
2023/04/15 11:32:49;;;;;;;1.02;0.40;;;7.40;99.90;;;;;;4954784;29;20023;-78
2023/04/15 11:35:16;;;;;;;1.80;0.30;;;7.40;99.90;;;;;;4953092;29;20042;-77
2023/04/15 11:37:42;;;;;;;0.20;0.20;;;7.30;99.90;;;;;;4935121;29;20031;-77
2023/04/15 11:40:08;;;;;;;0.80;0.40;;;7.30;99.90;;;;;;4951383;29;20031;-77
2023/04/15 11:42:34;;;;;;;1.73;0.25;;;7.30;99.90;;;;;;4951465;29;20027;-77
2023/04/15 11:45:14;;;;;;;1.55;0.13;;;7.30;99.90;;;;;;4934371;29;20035;-78
2023/04/15 11:47:41;;;;;;;1.95;0.20;;;7.20;99.90;;;;;;4934312;29;20035;-77
2023/04/15 11:50:13;;;;;;;0.47;0.22;;;7.10;99.90;;;;;;4949504;29;20027;-77
2023/04/15 11:52:39;;;;;;;1.02;0.10;;;7.10;99.90;;;;;;4934334;29;20032;-77
2023/04/15 11:55:07;;;;;;;1.25;0.20;;;7.10;99.90;;;;;;4934738;29;20118;-78
2023/04/15 11:57:34;;;;;;;1.17;0.30;;;7.10;99.90;;;;;;4934745;29;20038;-78
2023/04/15 12:00:00;;;;;;;1.02;0.50;;;7.20;99.90;;;;;;4948666;29;20492;-77
2023/04/15 12:02:30;;;;;;;0.40;0.20;;;7.30;99.90;;;;;;4949767;29;20100;-77
2023/04/15 12:05:04;;;;;;;1.13;0.20;;;7.20;99.90;;;;;;4948882;29;20038;-77
2023/04/15 12:07:29;;;;;;;0.90;0.30;;;7.30;99.90;;;;;;4932894;29;20030;-77
2023/04/15 12:09:56;;;;;;;2.38;0.55;;;7.30;99.90;;;;;;4930436;29;20024;-79
2023/04/15 12:12:27;;;;;;;1.25;0.55;;;7.30;99.90;;;;;;4931334;29;20055;-78
2023/04/15 12:14:53;;;;;;;1.27;0.38;;;7.30;99.90;;;;;;4950518;29;20028;-78
2023/04/15 12:17:18;;;;;;;2.50;0.40;;;7.20;99.90;;;;;;4950448;29;20036;-77
2023/04/15 12:19:44;;;;;;;0.85;0.25;;;7.20;99.90;;;;;;4948598;29;20401;-77
2023/04/15 12:22:12;;;;;;;0.35;0.20;;;7.10;99.90;;;;;;4933763;29;20023;-79
2023/04/15 12:24:38;;;;;;;1.08;0.30;;;7.10;99.90;;;;;;4949998;29;20038;-78
2023/04/15 12:27:05;;;;;;;1.15;0.50;;;7.20;99.90;;;;;;4949514;29;20114;-77
2023/04/15 12:29:31;;;;;;;0.35;0.20;;;7.20;99.90;;;;;;4949938;29;20047;-77
2023/04/15 12:32:19;;;;;;;0.60;0.10;;;7.10;99.90;;;;;;4933090;29;20467;-76
2023/04/15 12:34:53;;;;;;;0.47;0.10;;;7.20;99.90;;;;;;4931793;29;20035;-76
2023/04/15 12:37:19;;;;;;;0.22;0.10;;;7.20;99.90;;;;;;4949474;29;20035;-79
2023/04/15 12:39:47;;;;;;;2.63;0.20;;;7.40;99.90;;;;;;4947951;29;20034;-77
2023/04/15 12:42:14;;;;;;;0.30;0.15;;;7.40;99.90;;;;;;4949649;29;20031;-76
2023/04/15 12:44:40;;;;;;;0.20;0.10;;;7.40;99.90;;;;;;4949949;29;20040;-76
2023/04/15 12:47:07;;;;;;;0.00;0.00;;;7.40;99.90;;;;;;4949348;29;20095;-71
2023/04/15 12:49:33;;;;;;;0.90;0.10;;;7.60;99.90;;;;;;4944198;29;20456;-70
2023/04/15 12:52:00;;;;;;;0.10;0.10;;;7.70;99.90;;;;;;4944693;29;20035;-71
2023/04/15 12:54:26;;;;;;;0.22;0.10;;;7.80;99.90;;;;;;4944343;29;20035;-71
2023/04/15 12:56:53;;;;;;;0.30;0.17;;;7.90;99.90;;;;;;4945833;29;20036;-72